sensor_id;sensor_type;location;lat;lon;timestamp;pressure;altitude;pressure_sealevel;temperature;humidity
78509;BME280;67802;50.846;7.958;2023-10-08T00:01:08;98544.97;;;18.64;52.25
78509;BME280;67802;50.846;7.958;2023-10-08T00:03:37;98555.47;;;18.64;52.30
78509;BME280;67802;50.846;7.958;2023-10-08T00:06:03;98551.09;;;18.64;52.09
78509;BME280;67802;50.846;7.958;2023-10-08T00:08:33;98551.91;;;18.65;52.18
78509;BME280;67802;50.846;7.958;2023-10-08T00:10:58;98557.19;;;18.65;51.95
78509;BME280;67802;50.846;7.958;2023-10-08T00:13:31;98559.81;;;18.65;52.10
78509;BME280;67802;50.846;7.958;2023-10-08T00:15:57;98559.81;;;18.65;52.11
78509;BME280;67802;50.846;7.958;2023-10-08T00:18:22;98555.41;;;18.65;51.99
78509;BME280;67802;50.846;7.958;2023-10-08T00:20:49;98557.09;;;18.66;51.86
78509;BME280;67802;50.846;7.958;2023-10-08T00:24:06;98554.47;;;18.66;52.00
78509;BME280;67802;50.846;7.958;2023-10-08T00:26:33;98556.22;;;18.66;51.95
78509;BME280;67802;50.846;7.958;2023-10-08T00:29:01;98573.72;;;18.67;51.99
78509;BME280;67802;50.846;7.958;2023-10-08T00:31:32;98560.56;;;18.67;52.11
78509;BME280;67802;50.846;7.958;2023-10-08T00:34:03;98571.94;;;18.67;52.04
78509;BME280;67802;50.846;7.958;2023-10-08T00:36:33;98574.56;;;18.67;52.07
78509;BME280;67802;50.846;7.958;2023-10-08T00:38:59;98570.25;;;18.66;52.17
78509;BME280;67802;50.846;7.958;2023-10-08T00:41:26;98569.31;;;18.67;51.82
78509;BME280;67802;50.846;7.958;2023-10-08T00:43:57;98566.66;;;18.67;52.04
78509;BME280;67802;50.846;7.958;2023-10-08T00:46:24;98571.94;;;18.67;51.99
78509;BME280;67802;50.846;7.958;2023-10-08T00:48:59;98572.75;;;18.68;52.05
78509;BME280;67802;50.846;7.958;2023-10-08T00:51:43;98572.75;;;18.68;52.01
78509;BME280;67802;50.846;7.958;2023-10-08T00:54:10;98561.28;;;18.69;51.93
78509;BME280;67802;50.846;7.958;2023-10-08T00:56:45;98556.03;;;18.69;51.98
78509;BME280;67802;50.846;7.958;2023-10-08T00:59:24;98577.09;;;18.69;51.99
78509;BME280;67802;50.846;7.958;2023-10-08T01:01:51;98576.16;;;18.70;52.05
78509;BME280;67802;50.846;7.958;2023-10-08T01:04:21;98569.19;;;18.69;52.16
78509;BME280;67802;50.846;7.958;2023-10-08T01:06:56;98569.19;;;18.69;51.84
78509;BME280;67802;50.846;7.958;2023-10-08T01:09:25;98579.72;;;18.69;51.87
78509;BME280;67802;50.846;7.958;2023-10-08T01:12:08;98581.41;;;18.70;52.10
78509;BME280;67802;50.846;7.958;2023-10-08T01:14:34;98569.19;;;18.69;51.89
78509;BME280;67802;50.846;7.958;2023-10-08T01:17:00;98560.47;;;18.68;52.02
78509;BME280;67802;50.846;7.958;2023-10-08T01:19:26;98562.25;;;18.68;51.92
78509;BME280;67802;50.846;7.958;2023-10-08T01:21:52;98563.19;;;18.67;51.97
78509;BME280;67802;50.846;7.958;2023-10-08T01:24:17;98557.84;;;18.68;51.93
78509;BME280;67802;50.846;7.958;2023-10-08T01:26:45;98547.31;;;18.68;52.21
78509;BME280;67802;50.846;7.958;2023-10-08T01:29:12;98550.03;;;18.67;51.99
78509;BME280;67802;50.846;7.958;2023-10-08T01:31:45;98544.75;;;18.67;52.05
78509;BME280;67802;50.846;7.958;2023-10-08T01:34:11;98529.91;;;18.66;52.08
78509;BME280;67802;50.846;7.958;2023-10-08T01:36:41;98536.97;;;18.65;52.00
78509;BME280;67802;50.846;7.958;2023-10-08T01:39:09;98522.97;;;18.65;52.09
78509;BME280;67802;50.846;7.958;2023-10-08T01:41:42;98538.66;;;18.66;51.92
78509;BME280;67802;50.846;7.958;2023-10-08T01:44:07;98536.13;;;18.65;51.90
78509;BME280;67802;50.846;7.958;2023-10-08T01:46:33;98559.81;;;18.65;51.99
78509;BME280;67802;50.846;7.958;2023-10-08T01:49:00;98566.00;;;18.64;52.10
78509;BME280;67802;50.846;7.958;2023-10-08T01:51:30;98563.38;;;18.64;52.17
78509;BME280;67802;50.846;7.958;2023-10-08T01:54:12;98567.81;;;18.63;52.08
78509;BME280;67802;50.846;7.958;2023-10-08T01:56:40;98571.28;;;18.64;52.11
78509;BME280;67802;50.846;7.958;2023-10-08T01:59:08;98574.03;;;18.62;52.04
78509;BME280;67802;50.846;7.958;2023-10-08T02:01:34;98574.84;;;18.63;51.96
78509;BME280;67802;50.846;7.958;2023-10-08T02:04:00;98568.75;;;18.62;52.05
78509;BME280;67802;50.846;7.958;2023-10-08T02:06:25;98567.91;;;18.62;52.04
78509;BME280;67802;50.846;7.958;2023-10-08T02:08:50;98573.16;;;18.62;51.81
78509;BME280;67802;50.846;7.958;2023-10-08T02:11:16;98578.41;;;18.62;52.03
78509;BME280;67802;50.846;7.958;2023-10-08T02:13:41;98581.91;;;18.62;52.23
78509;BME280;67802;50.846;7.958;2023-10-08T02:16:07;98592.53;;;18.61;52.03
78509;BME280;67802;50.846;7.958;2023-10-08T02:18:32;98602.22;;;18.60;52.15
78509;BME280;67802;50.846;7.958;2023-10-08T02:20:58;98601.34;;;18.60;52.03
78509;BME280;67802;50.846;7.958;2023-10-08T02:23:24;98604.00;;;18.60;52.17
78509;BME280;67802;50.846;7.958;2023-10-08T02:25:49;98603.16;;;18.59;52.04
78509;BME280;67802;50.846;7.958;2023-10-08T02:28:14;98595.25;;;18.59;51.92
78509;BME280;67802;50.846;7.958;2023-10-08T02:30:41;98589.13;;;18.59;52.00
78509;BME280;67802;50.846;7.958;2023-10-08T02:33:07;98591.78;;;18.59;52.16
78509;BME280;67802;50.846;7.958;2023-10-08T02:35:43;98586.50;;;18.59;52.19
78509;BME280;67802;50.846;7.958;2023-10-08T02:38:11;98587.44;;;18.58;52.19
78509;BME280;67802;50.846;7.958;2023-10-08T02:40:42;98580.50;;;18.57;52.06
78509;BME280;67802;50.846;7.958;2023-10-08T02:43:12;98591.03;;;18.57;52.14
78509;BME280;67802;50.846;7.958;2023-10-08T02:45:39;98601.56;;;18.57;52.11
78509;BME280;67802;50.846;7.958;2023-10-08T02:48:06;98602.50;;;18.56;52.17
78509;BME280;67802;50.846;7.958;2023-10-08T02:50:40;98610.38;;;18.56;52.13
78509;BME280;67802;50.846;7.958;2023-10-08T02:53:06;98609.56;;;18.55;52.12
78509;BME280;67802;50.846;7.958;2023-10-08T02:55:39;98614.00;;;18.54;52.10
78509;BME280;67802;50.846;7.958;2023-10-08T02:58:12;98625.34;;;18.55;52.09
78509;BME280;67802;50.846;7.958;2023-10-08T03:00:45;98624.50;;;18.54;52.27
78509;BME280;67802;50.846;7.958;2023-10-08T03:03:12;98617.56;;;18.53;52.17
78509;BME280;67802;50.846;7.958;2023-10-08T03:05:45;98601.78;;;18.53;52.31
78509;BME280;67802;50.846;7.958;2023-10-08T03:08:12;98590.38;;;18.53;52.10
78509;BME280;67802;50.846;7.958;2023-10-08T03:10:38;98597.47;;;18.52;52.37
78509;BME280;67802;50.846;7.958;2023-10-08T03:13:04;98597.47;;;18.52;52.38
78509;BME280;67802;50.846;7.958;2023-10-08T03:15:30;98603.66;;;18.51;52.21
78509;BME280;67802;50.846;7.958;2023-10-08T03:18:02;98581.75;;;18.51;52.35
78509;BME280;67802;50.846;7.958;2023-10-08T03:20:38;98587.00;;;18.51;52.29
78509;BME280;67802;50.846;7.958;2023-10-08T03:23:12;98573.97;;;18.49;52.17
78509;BME280;67802;50.846;7.958;2023-10-08T03:25:50;98563.44;;;18.49;52.21
78509;BME280;67802;50.846;7.958;2023-10-08T03:28:21;98552.94;;;18.49;52.26
78509;BME280;67802;50.846;7.958;2023-10-08T03:30:51;98546.81;;;18.49;52.20
78509;BME280;67802;50.846;7.958;2023-10-08T03:33:17;98542.47;;;18.48;52.33
78509;BME280;67802;50.846;7.958;2023-10-08T03:35:48;98541.66;;;18.47;52.25
78509;BME280;67802;50.846;7.958;2023-10-08T03:38:15;98539.03;;;18.47;52.28
78509;BME280;67802;50.846;7.958;2023-10-08T03:40:47;98525.88;;;18.47;52.14
78509;BME280;67802;50.846;7.958;2023-10-08T03:43:15;98537.34;;;18.46;52.18
78509;BME280;67802;50.846;7.958;2023-10-08T03:45:48;98552.25;;;18.46;52.20
78509;BME280;67802;50.846;7.958;2023-10-08T03:48:16;98561.97;;;18.45;52.43
78509;BME280;67802;50.846;7.958;2023-10-08T03:50:42;98561.84;;;18.47;52.27
78509;BME280;67802;50.846;7.958;2023-10-08T03:53:09;98571.63;;;18.45;52.34
78509;BME280;67802;50.846;7.958;2023-10-08T03:55:38;98576.06;;;18.44;52.27
78509;BME280;67802;50.846;7.958;2023-10-08T03:58:08;98575.09;;;18.45;52.41
78509;BME280;67802;50.846;7.958;2023-10-08T04:00:36;98589.09;;;18.46;52.18
78509;BME280;67802;50.846;7.958;2023-10-08T04:03:06;98593.53;;;18.45;52.28
78509;BME280;67802;50.846;7.958;2023-10-08T04:05:40;98625.09;;;18.45;52.24
78509;BME280;67802;50.846;7.958;2023-10-08T04:08:24;98621.53;;;18.46;52.35
78509;BME280;67802;50.846;7.958;2023-10-08T04:11:09;98596.91;;;18.47;52.48
78509;BME280;67802;50.846;7.958;2023-10-08T04:13:47;98587.22;;;18.48;52.24
78509;BME280;67802;50.846;7.958;2023-10-08T04:16:13;98593.13;;;18.51;52.15
78509;BME280;67802;50.846;7.958;2023-10-08T04:18:44;98616.81;;;18.51;52.23
78509;BME280;67802;50.846;7.958;2023-10-08T04:21:10;98600.91;;;18.53;51.98
78509;BME280;67802;50.846;7.958;2023-10-08T04:23:39;98607.75;;;18.56;52.03
78509;BME280;67802;50.846;7.958;2023-10-08T04:26:05;98606.81;;;18.57;51.85
78509;BME280;67802;50.846;7.958;2023-10-08T04:28:32;98608.50;;;18.58;52.06
78509;BME280;67802;50.846;7.958;2023-10-08T04:30:59;98596.09;;;18.60;51.88
78509;BME280;67802;50.846;7.958;2023-10-08T04:33:39;98599.47;;;18.62;51.77
78509;BME280;67802;50.846;7.958;2023-10-08T04:36:05;98590.63;;;18.63;51.79
78509;BME280;67802;50.846;7.958;2023-10-08T04:38:32;98599.28;;;18.65;52.03
78509;BME280;67802;50.846;7.958;2023-10-08T04:41:04;98584.22;;;18.67;51.91
78509;BME280;67802;50.846;7.958;2023-10-08T04:43:34;98558.66;;;18.69;51.74
78509;BME280;67802;50.846;7.958;2023-10-08T04:46:03;98549.81;;;18.70;51.74
78509;BME280;67802;50.846;7.958;2023-10-08T04:48:47;98557.63;;;18.72;51.78
78509;BME280;67802;50.846;7.958;2023-10-08T04:51:15;98544.38;;;18.73;51.83
78509;BME280;67802;50.846;7.958;2023-10-08T04:53:43;98525.00;;;18.74;51.92
78509;BME280;67802;50.846;7.958;2023-10-08T04:56:11;98531.00;;;18.76;51.78
78509;BME280;67802;50.846;7.958;2023-10-08T04:58:46;98537.97;;;18.77;51.66
78509;BME280;67802;50.846;7.958;2023-10-08T05:01:15;98558.94;;;18.79;51.51
78509;BME280;67802;50.846;7.958;2023-10-08T05:03:55;98579.88;;;18.80;51.59
78509;BME280;67802;50.846;7.958;2023-10-08T05:06:24;98577.25;;;18.80;51.49
78509;BME280;67802;50.846;7.958;2023-10-08T05:09:02;98610.50;;;18.81;51.48
78509;BME280;67802;50.846;7.958;2023-10-08T05:11:48;98622.72;;;18.82;51.42
78509;BME280;67802;50.846;7.958;2023-10-08T05:14:18;98615.59;;;18.84;51.42
78509;BME280;67802;50.846;7.958;2023-10-08T05:17:06;98646.22;;;18.86;51.51
78509;BME280;67802;50.846;7.958;2023-10-08T05:19:43;98658.44;;;18.87;51.44
78509;BME280;67802;50.846;7.958;2023-10-08T05:22:27;98662.78;;;18.88;51.49
78509;BME280;67802;50.846;7.958;2023-10-08T05:24:52;98650.34;;;18.90;51.26
78509;BME280;67802;50.846;7.958;2023-10-08T05:27:41;98646.03;;;18.89;51.42
78509;BME280;67802;50.846;7.958;2023-10-08T05:30:12;98649.41;;;18.91;51.26
78509;BME280;67802;50.846;7.958;2023-10-08T05:32:42;98631.81;;;18.91;51.48
78509;BME280;67802;50.846;7.958;2023-10-08T05:35:46;98632.69;;;18.92;51.29
78509;BME280;67802;50.846;7.958;2023-10-08T05:38:22;98637.06;;;18.91;51.39
78509;BME280;67802;50.846;7.958;2023-10-08T05:40:50;98630.88;;;18.92;51.37
78509;BME280;67802;50.846;7.958;2023-10-08T05:43:21;98628.22;;;18.92;51.37
78509;BME280;67802;50.846;7.958;2023-10-08T05:46:02;98631.72;;;18.93;51.47
78509;BME280;67802;50.846;7.958;2023-10-08T05:48:46;98613.31;;;18.93;51.40
78509;BME280;67802;50.846;7.958;2023-10-08T05:51:26;98623.84;;;18.93;51.32
78509;BME280;67802;50.846;7.958;2023-10-08T05:56:57;98628.16;;;18.94;51.44
78509;BME280;67802;50.846;7.958;2023-10-08T05:59:38;98652.78;;;18.93;51.35
78509;BME280;67802;50.846;7.958;2023-10-08T06:02:25;98659.81;;;18.92;51.23
78509;BME280;67802;50.846;7.958;2023-10-08T06:05:13;98672.06;;;18.93;51.45
78509;BME280;67802;50.846;7.958;2023-10-08T06:07:43;98683.44;;;18.94;51.28
78509;BME280;67802;50.846;7.958;2023-10-08T06:10:18;98689.66;;;18.93;51.39
78509;BME280;67802;50.846;7.958;2023-10-08T06:12:57;98687.00;;;18.93;51.42
78509;BME280;67802;50.846;7.958;2023-10-08T06:15:39;98690.59;;;18.92;51.37
78509;BME280;67802;50.846;7.958;2023-10-08T06:18:17;98681.75;;;18.93;51.31
78509;BME280;67802;50.846;7.958;2023-10-08T06:20:44;98676.47;;;18.93;51.40
78509;BME280;67802;50.846;7.958;2023-10-08T06:23:13;98683.53;;;18.92;51.29
78509;BME280;67802;50.846;7.958;2023-10-08T06:25:41;98679.00;;;18.94;51.44
78509;BME280;67802;50.846;7.958;2023-10-08T06:28:16;98660.69;;;18.93;51.28
78509;BME280;67802;50.846;7.958;2023-10-08T06:30:47;98678.19;;;18.94;51.28
78509;BME280;67802;50.846;7.958;2023-10-08T06:33:14;98665.97;;;18.93;51.35
78509;BME280;67802;50.846;7.958;2023-10-08T06:35:40;98659.81;;;18.92;51.38
78509;BME280;67802;50.846;7.958;2023-10-08T06:38:10;98662.38;;;18.94;51.59
78509;BME280;67802;50.846;7.958;2023-10-08T06:40:36;98678.19;;;18.94;51.43
78509;BME280;67802;50.846;7.958;2023-10-08T06:43:02;98655.44;;;18.93;51.44
78509;BME280;67802;50.846;7.958;2023-10-08T06:45:48;98637.00;;;18.93;51.20
78509;BME280;67802;50.846;7.958;2023-10-08T06:48:18;98645.72;;;18.93;51.28
78509;BME280;67802;50.846;7.958;2023-10-08T06:50:49;98640.47;;;18.93;51.39
78509;BME280;67802;50.846;7.958;2023-10-08T06:53:15;98644.03;;;18.92;51.44
78509;BME280;67802;50.846;7.958;2023-10-08T06:55:46;98653.72;;;18.92;51.31
78509;BME280;67802;50.846;7.958;2023-10-08T06:58:13;98654.56;;;18.92;51.31
78509;BME280;67802;50.846;7.958;2023-10-08T07:00:40;98671.22;;;18.93;51.33
78509;BME280;67802;50.846;7.958;2023-10-08T07:03:12;98684.38;;;18.93;51.22
78509;BME280;67802;50.846;7.958;2023-10-08T07:05:50;98683.44;;;18.94;51.29
78509;BME280;67802;50.846;7.958;2023-10-08T07:08:32;98678.19;;;18.94;50.87
78509;BME280;67802;50.846;7.958;2023-10-08T07:10:59;98676.47;;;18.93;51.23
78509;BME280;67802;50.846;7.958;2023-10-08T07:13:26;98689.53;;;18.94;51.15
78509;BME280;67802;50.846;7.958;2023-10-08T07:15:54;98686.06;;;18.94;51.28
78509;BME280;67802;50.846;7.958;2023-10-08T07:18:20;98687.84;;;18.93;51.33
78509;BME280;67802;50.846;7.958;2023-10-08T07:20:53;98687.84;;;18.93;51.25
78509;BME280;67802;50.846;7.958;2023-10-08T07:23:23;98682.59;;;18.93;51.48
78509;BME280;67802;50.846;7.958;2023-10-08T07:25:54;98690.47;;;18.93;51.22
78509;BME280;67802;50.846;7.958;2023-10-08T07:28:27;98689.66;;;18.93;51.33
78509;BME280;67802;50.846;7.958;2023-10-08T07:30:54;98687.00;;;18.93;51.36
78509;BME280;67802;50.846;7.958;2023-10-08T07:33:20;98680.06;;;18.92;51.45
78509;BME280;67802;50.846;7.958;2023-10-08T07:35:50;98682.69;;;18.92;51.23
78509;BME280;67802;50.846;7.958;2023-10-08T07:38:25;98684.47;;;18.91;51.33
78509;BME280;67802;50.846;7.958;2023-10-08T07:40:52;98694.16;;;18.91;51.47
78509;BME280;67802;50.846;7.958;2023-10-08T07:43:18;98695.00;;;18.91;51.22
78509;BME280;67802;50.846;7.958;2023-10-08T07:45:46;98698.56;;;18.90;51.47
78509;BME280;67802;50.846;7.958;2023-10-08T07:48:11;98718.81;;;18.90;51.52
78509;BME280;67802;50.846;7.958;2023-10-08T07:50:45;98731.03;;;18.91;51.25
78509;BME280;67802;50.846;7.958;2023-10-08T07:53:12;98742.50;;;18.90;51.45
78509;BME280;67802;50.846;7.958;2023-10-08T07:55:44;98745.13;;;18.90;51.47
78509;BME280;67802;50.846;7.958;2023-10-08T07:58:10;98745.13;;;18.90;51.47
78509;BME280;67802;50.846;7.958;2023-10-08T08:00:36;98724.06;;;18.90;51.50
78509;BME280;67802;50.846;7.958;2023-10-08T08:03:04;98727.66;;;18.89;51.42
78509;BME280;67802;50.846;7.958;2023-10-08T08:05:30;98732.91;;;18.89;51.25
78509;BME280;67802;50.846;7.958;2023-10-08T08:07:55;98725.00;;;18.89;51.31
78509;BME280;67802;50.846;7.958;2023-10-08T08:10:23;98748.69;;;18.89;51.51
78509;BME280;67802;50.846;7.958;2023-10-08T08:12:49;98760.94;;;18.90;51.46
78509;BME280;67802;50.846;7.958;2023-10-08T08:15:16;98760.94;;;18.90;51.48
78509;BME280;67802;50.846;7.958;2023-10-08T08:17:43;98760.94;;;18.90;51.39
78509;BME280;67802;50.846;7.958;2023-10-08T08:20:09;98774.09;;;18.90;51.54
78509;BME280;67802;50.846;7.958;2023-10-08T08:22:44;98768.72;;;18.91;51.45
78509;BME280;67802;50.846;7.958;2023-10-08T08:25:16;98762.63;;;18.91;51.30
78509;BME280;67802;50.846;7.958;2023-10-08T08:27:44;98745.13;;;18.90;51.39
78509;BME280;67802;50.846;7.958;2023-10-08T08:30:14;98735.34;;;18.92;51.29
78509;BME280;67802;50.846;7.958;2023-10-08T08:32:45;98734.50;;;18.91;51.31
78509;BME280;67802;50.846;7.958;2023-10-08T08:35:13;98732.72;;;18.92;51.44
78509;BME280;67802;50.846;7.958;2023-10-08T08:37:41;98727.44;;;18.92;51.36
78509;BME280;67802;50.846;7.958;2023-10-08T08:40:08;98730.09;;;18.92;51.65
78509;BME280;67802;50.846;7.958;2023-10-08T08:42:50;98732.72;;;18.92;51.30
78509;BME280;67802;50.846;7.958;2023-10-08T08:45:22;98731.84;;;18.91;51.35
78509;BME280;67802;50.846;7.958;2023-10-08T08:47:50;98736.19;;;18.92;51.48
78509;BME280;67802;50.846;7.958;2023-10-08T08:50:16;98734.41;;;18.93;51.35
78509;BME280;67802;50.846;7.958;2023-10-08T08:52:42;98731.78;;;18.93;51.22
78509;BME280;67802;50.846;7.958;2023-10-08T08:55:10;98730.84;;;18.94;51.22
78509;BME280;67802;50.846;7.958;2023-10-08T08:57:51;98742.16;;;18.96;51.23
78509;BME280;67802;50.846;7.958;2023-10-08T09:00:19;98734.25;;;18.96;51.30
78509;BME280;67802;50.846;7.958;2023-10-08T09:02:45;98723.72;;;18.96;51.17
78509;BME280;67802;50.846;7.958;2023-10-08T09:05:12;98748.31;;;18.95;51.63
78509;BME280;67802;50.846;7.958;2023-10-08T09:07:59;98738.72;;;18.94;51.42
78509;BME280;67802;50.846;7.958;2023-10-08T09:10:28;98739.50;;;18.96;51.54
78509;BME280;67802;50.846;7.958;2023-10-08T09:12:55;98753.44;;;18.98;51.69
78509;BME280;67802;50.846;7.958;2023-10-08T09:15:24;98742.69;;;19.01;51.65
78509;BME280;67802;50.846;7.958;2023-10-08T09:17:51;98742.69;;;19.01;51.65
78509;BME280;67802;50.846;7.958;2023-10-08T09:20:17;98738.25;;;19.02;51.70
78509;BME280;67802;50.846;7.958;2023-10-08T09:22:42;98730.28;;;19.03;51.80
78509;BME280;67802;50.846;7.958;2023-10-08T09:25:08;98728.59;;;19.02;51.96
78509;BME280;67802;50.846;7.958;2023-10-08T09:27:33;98739.13;;;19.02;52.08
78509;BME280;67802;50.846;7.958;2023-10-08T09:30:05;98740.91;;;19.02;52.01
78509;BME280;67802;50.846;7.958;2023-10-08T09:32:33;98750.50;;;19.03;52.08
78509;BME280;67802;50.846;7.958;2023-10-08T09:35:00;98746.09;;;19.03;52.36
78509;BME280;67802;50.846;7.958;2023-10-08T09:37:26;98750.50;;;19.03;52.32
78509;BME280;67802;50.846;7.958;2023-10-08T09:39:52;98762.72;;;19.04;52.29
78509;BME280;67802;50.846;7.958;2023-10-08T09:42:18;98767.91;;;19.05;52.11
78509;BME280;67802;50.846;7.958;2023-10-08T09:44:47;98769.59;;;19.06;52.18
78509;BME280;67802;50.846;7.958;2023-10-08T09:47:20;98770.31;;;19.08;52.04
78509;BME280;67802;50.846;7.958;2023-10-08T09:49:57;98781.59;;;19.10;52.12
78509;BME280;67802;50.846;7.958;2023-10-08T09:52:36;98782.34;;;19.12;52.03
78509;BME280;67802;50.846;7.958;2023-10-08T09:55:08;98799.00;;;19.13;52.31
78509;BME280;67802;50.846;7.958;2023-10-08T09:57:36;98799.00;;;19.13;52.18
78509;BME280;67802;50.846;7.958;2023-10-08T10:00:02;98801.53;;;19.15;52.23
78509;BME280;67802;50.846;7.958;2023-10-08T10:02:30;98805.03;;;19.15;52.27
78509;BME280;67802;50.846;7.958;2023-10-08T10:04:56;98804.16;;;19.15;52.21
78509;BME280;67802;50.846;7.958;2023-10-08T10:07:21;98807.66;;;19.15;52.27
78509;BME280;67802;50.846;7.958;2023-10-08T10:09:51;98816.38;;;19.16;52.15
78509;BME280;67802;50.846;7.958;2023-10-08T10:12:26;98824.22;;;19.17;52.07
78509;BME280;67802;50.846;7.958;2023-10-08T10:14:55;98826.72;;;19.19;52.20
78509;BME280;67802;50.846;7.958;2023-10-08T10:19:57;98838.13;;;19.19;52.17
78509;BME280;67802;50.846;7.958;2023-10-08T10:22:34;98839.91;;;19.19;52.04
78509;BME280;67802;50.846;7.958;2023-10-08T10:25:02;98832.00;;;19.19;52.34
78509;BME280;67802;50.846;7.958;2023-10-08T10:27:41;98846.03;;;19.19;52.39
78509;BME280;67802;50.846;7.958;2023-10-08T10:30:07;98834.63;;;19.19;52.24
78509;BME280;67802;50.846;7.958;2023-10-08T10:32:35;98842.47;;;19.20;52.43
78509;BME280;67802;50.846;7.958;2023-10-08T10:35:00;98838.97;;;19.20;52.20
78509;BME280;67802;50.846;7.958;2023-10-08T10:37:29;98835.38;;;19.21;52.38
78509;BME280;67802;50.846;7.958;2023-10-08T10:40:06;98844.97;;;19.22;52.38
78509;BME280;67802;50.846;7.958;2023-10-08T10:42:36;98831.81;;;19.22;52.35
78509;BME280;67802;50.846;7.958;2023-10-08T10:45:12;98821.19;;;19.23;52.31
78509;BME280;67802;50.846;7.958;2023-10-08T10:47:58;98834.25;;;19.25;52.41
78509;BME280;67802;50.846;7.958;2023-10-08T10:50:37;98828.03;;;19.26;52.45
78509;BME280;67802;50.846;7.958;2023-10-08T10:53:13;98824.97;;;19.19;52.33
78509;BME280;67802;50.846;7.958;2023-10-08T10:55:40;98822.78;;;19.11;52.31
78509;BME280;67802;50.846;7.958;2023-10-08T10:58:13;98824.66;;;19.09;52.55
78509;BME280;67802;50.846;7.958;2023-10-08T11:00:44;98824.66;;;19.09;52.54
78509;BME280;67802;50.846;7.958;2023-10-08T11:03:09;98817.72;;;19.08;52.83
78509;BME280;67802;50.846;7.958;2023-10-08T11:05:56;98813.31;;;19.09;52.71
78509;BME280;67802;50.846;7.958;2023-10-08T11:08:25;98800.97;;;19.09;52.80
78509;BME280;67802;50.846;7.958;2023-10-08T11:10:52;98794.97;;;19.07;52.74
78509;BME280;67802;50.846;7.958;2023-10-08T11:13:19;98807.19;;;19.08;52.74
78509;BME280;67802;50.846;7.958;2023-10-08T11:15:47;98794.75;;;19.10;52.60
78509;BME280;67802;50.846;7.958;2023-10-08T11:18:22;98796.25;;;19.15;52.47
78509;BME280;67802;50.846;7.958;2023-10-08T11:20:50;98806.41;;;19.21;52.77
78509;BME280;67802;50.846;7.958;2023-10-08T11:23:36;98809.78;;;19.23;52.59
78509;BME280;67802;50.846;7.958;2023-10-08T11:26:04;98806.22;;;19.24;52.20
78509;BME280;67802;50.846;7.958;2023-10-08T11:28:35;98816.94;;;19.21;52.78
78509;BME280;67802;50.846;7.958;2023-10-08T11:31:03;98827.88;;;19.15;52.76
78509;BME280;67802;50.846;7.958;2023-10-08T11:33:36;98829.84;;;19.11;52.96
78509;BME280;67802;50.846;7.958;2023-10-08T11:36:03;98829.22;;;19.07;52.90
78509;BME280;67802;50.846;7.958;2023-10-08T11:38:41;98830.25;;;19.05;52.85
78509;BME280;67802;50.846;7.958;2023-10-08T11:41:13;98828.66;;;19.02;53.16
78509;BME280;67802;50.846;7.958;2023-10-08T11:43:52;98816.50;;;19.00;53.17
78509;BME280;67802;50.846;7.958;2023-10-08T11:46:28;98818.31;;;18.99;53.29
78509;BME280;67802;50.846;7.958;2023-10-08T11:49:06;98821.59;;;19.03;53.38
78509;BME280;67802;50.846;7.958;2023-10-08T11:51:35;98812.66;;;19.05;53.11
78509;BME280;67802;50.846;7.958;2023-10-08T11:54:01;98814.13;;;19.09;52.99
78509;BME280;67802;50.846;7.958;2023-10-08T11:56:28;98805.09;;;19.13;53.01
78509;BME280;67802;50.846;7.958;2023-10-08T11:58:54;98799.75;;;19.15;53.12
78509;BME280;67802;50.846;7.958;2023-10-08T12:01:22;98797.75;;;19.19;53.27
78509;BME280;67802;50.846;7.958;2023-10-08T12:03:49;98802.00;;;19.21;52.95
78509;BME280;67802;50.846;7.958;2023-10-08T12:06:15;98787.03;;;19.22;52.91
78509;BME280;67802;50.846;7.958;2023-10-08T12:08:43;98785.16;;;19.24;53.04
78509;BME280;67802;50.846;7.958;2023-10-08T12:11:12;98784.22;;;19.25;52.96
78509;BME280;67802;50.846;7.958;2023-10-08T12:13:38;98785.81;;;19.27;52.78
78509;BME280;67802;50.846;7.958;2023-10-08T12:16:09;98778.66;;;19.30;52.87
78509;BME280;67802;50.846;7.958;2023-10-08T12:18:38;98779.50;;;19.30;52.71
78509;BME280;67802;50.846;7.958;2023-10-08T12:21:09;98781.19;;;19.31;52.94
78509;BME280;67802;50.846;7.958;2023-10-08T12:23:40;98784.56;;;19.33;53.23
78509;BME280;67802;50.846;7.958;2023-10-08T12:26:08;98785.44;;;19.34;52.89
78509;BME280;67802;50.846;7.958;2023-10-08T12:28:37;98785.44;;;19.34;52.72
78509;BME280;67802;50.846;7.958;2023-10-08T12:31:02;98787.94;;;19.35;52.76
78509;BME280;67802;50.846;7.958;2023-10-08T12:33:29;98775.59;;;19.36;52.79
78509;BME280;67802;50.846;7.958;2023-10-08T12:35:55;98777.28;;;19.37;52.66
78509;BME280;67802;50.846;7.958;2023-10-08T12:38:22;98769.38;;;19.37;52.80
78509;BME280;67802;50.846;7.958;2023-10-08T12:40:48;98763.19;;;19.38;52.71
78509;BME280;67802;50.846;7.958;2023-10-08T12:43:18;98767.63;;;19.37;52.79
78509;BME280;67802;50.846;7.958;2023-10-08T12:45:51;98771.94;;;19.38;52.78
78509;BME280;67802;50.846;7.958;2023-10-08T12:48:20;98768.44;;;19.38;52.81
78509;BME280;67802;50.846;7.958;2023-10-08T12:50:47;98764.03;;;19.38;52.70
78509;BME280;67802;50.846;7.958;2023-10-08T12:53:28;98768.38;;;19.39;52.59
78509;BME280;67802;50.846;7.958;2023-10-08T12:56:03;98765.72;;;19.39;52.74
78509;BME280;67802;50.846;7.958;2023-10-08T12:58:34;98763.09;;;19.39;52.66
78509;BME280;67802;50.846;7.958;2023-10-08T13:01:06;98766.66;;;19.38;52.88
78509;BME280;67802;50.846;7.958;2023-10-08T13:03:35;98765.72;;;19.39;52.76
78509;BME280;67802;50.846;7.958;2023-10-08T13:06:07;98763.09;;;19.39;52.78
78509;BME280;67802;50.846;7.958;2023-10-08T13:08:36;98757.81;;;19.39;52.88
78509;BME280;67802;50.846;7.958;2023-10-08T13:11:02;98764.03;;;19.38;52.91
78509;BME280;67802;50.846;7.958;2023-10-08T13:13:32;98763.09;;;19.39;52.92
78509;BME280;67802;50.846;7.958;2023-10-08T13:15:58;98768.38;;;19.39;52.92
78509;BME280;67802;50.846;7.958;2023-10-08T13:18:28;98772.69;;;19.40;52.98
78509;BME280;67802;50.846;7.958;2023-10-08T13:20:53;98770.06;;;19.40;53.01
78509;BME280;67802;50.846;7.958;2023-10-08T13:23:19;98775.31;;;19.40;53.02